Newville, Indiana
Current Conditions -  °F | °C
As of 5:55 PM on Monday 24 Nov 2014 (Local Time) from KGWB Reporting Station
Overcast Overcast  
Wind Chill: 22°   Ceiling: 1800
Heat Index: 34°   Visibility: 10mi
Dew Point: 28°   Wind: 21mph
Humidity: 81%   Direction: 240°WSW
Pressure: 29.63"   Gusts: 29mph
Location:  41.4294°N, 84.8751°W
Report Text: KGWB 242255Z AUTO 24018G25KT 10SM OVC018 01/M02 A2963 RMK AO2
Loading
Personal Weather Stations






























Interactive Weather Map New forecast layout! Learn more

10-Day Weather Forecast

Advertisements
Track Severe Weather on mobile